sensor_id;sensor_type;location;lat;lon;timestamp;P1;durP1;ratioP1;P2;durP2;ratioP2
669;SDS011;317;48.758;9.302;2022-07-21T00:02:28;12.33;;;11.27;;
669;SDS011;317;48.758;9.302;2022-07-21T00:04:55;12.20;;;11.30;;
669;SDS011;317;48.758;9.302;2022-07-21T00:07:23;12.87;;;11.77;;
669;SDS011;317;48.758;9.302;2022-07-21T00:09:50;13.33;;;12.40;;
669;SDS011;317;48.758;9.302;2022-07-21T00:12:19;13.70;;;12.60;;
669;SDS011;317;48.758;9.302;2022-07-21T00:14:45;13.10;;;11.90;;
669;SDS011;317;48.758;9.302;2022-07-21T00:17:13;14.20;;;12.90;;
669;SDS011;317;48.758;9.302;2022-07-21T00:19:47;14.00;;;12.90;;
669;SDS011;317;48.758;9.302;2022-07-21T00:22:14;12.03;;;10.93;;
669;SDS011;317;48.758;9.302;2022-07-21T00:24:44;12.93;;;11.73;;
669;SDS011;317;48.758;9.302;2022-07-21T00:27:10;11.73;;;10.87;;
669;SDS011;317;48.758;9.302;2022-07-21T00:29:37;11.20;;;10.20;;
669;SDS011;317;48.758;9.302;2022-07-21T00:32:05;14.30;;;13.10;;
669;SDS011;317;48.758;9.302;2022-07-21T00:34:33;13.87;;;12.77;;
669;SDS011;317;48.758;9.302;2022-07-21T00:37:00;13.83;;;12.73;;
669;SDS011;317;48.758;9.302;2022-07-21T00:39:27;11.70;;;10.70;;
669;SDS011;317;48.758;9.302;2022-07-21T00:41:56;13.00;;;12.20;;
669;SDS011;317;48.758;9.302;2022-07-21T00:44:23;12.30;;;11.30;;
669;SDS011;317;48.758;9.302;2022-07-21T00:46:51;12.93;;;11.77;;
669;SDS011;317;48.758;9.302;2022-07-21T00:49:19;11.00;;;10.13;;
669;SDS011;317;48.758;9.302;2022-07-21T00:51:46;12.63;;;11.63;;
669;SDS011;317;48.758;9.302;2022-07-21T00:54:14;13.73;;;12.27;;
669;SDS011;317;48.758;9.302;2022-07-21T00:56:42;12.53;;;11.33;;
669;SDS011;317;48.758;9.302;2022-07-21T00:59:11;13.73;;;12.53;;
669;SDS011;317;48.758;9.302;2022-07-21T01:01:38;13.47;;;12.47;;
669;SDS011;317;48.758;9.302;2022-07-21T01:04:05;14.60;;;13.33;;
669;SDS011;317;48.758;9.302;2022-07-21T01:06:32;13.37;;;11.97;;
669;SDS011;317;48.758;9.302;2022-07-21T01:08:58;13.23;;;12.17;;
669;SDS011;317;48.758;9.302;2022-07-21T01:11:26;13.70;;;12.60;;
669;SDS011;317;48.758;9.302;2022-07-21T01:13:53;12.30;;;11.40;;
669;SDS011;317;48.758;9.302;2022-07-21T01:16:22;13.17;;;12.07;;
669;SDS011;317;48.758;9.302;2022-07-21T01:18:49;14.07;;;12.97;;
669;SDS011;317;48.758;9.302;2022-07-21T01:21:27;13.23;;;12.13;;
669;SDS011;317;48.758;9.302;2022-07-21T01:23:55;12.37;;;11.47;;
669;SDS011;317;48.758;9.302;2022-07-21T01:26:23;13.97;;;12.77;;
669;SDS011;317;48.758;9.302;2022-07-21T01:28:51;12.73;;;11.83;;
669;SDS011;317;48.758;9.302;2022-07-21T01:31:18;14.13;;;12.80;;
669;SDS011;317;48.758;9.302;2022-07-21T01:33:45;14.40;;;13.20;;
669;SDS011;317;48.758;9.302;2022-07-21T01:36:12;15.70;;;14.40;;
669;SDS011;317;48.758;9.302;2022-07-21T01:38:40;13.70;;;12.60;;
669;SDS011;317;48.758;9.302;2022-07-21T01:41:24;15.30;;;14.30;;
669;SDS011;317;48.758;9.302;2022-07-21T01:44:00;14.53;;;13.33;;
669;SDS011;317;48.758;9.302;2022-07-21T01:46:28;16.17;;;14.90;;
669;SDS011;317;48.758;9.302;2022-07-21T01:48:56;13.37;;;12.30;;
669;SDS011;317;48.758;9.302;2022-07-21T01:51:22;14.20;;;13.00;;
669;SDS011;317;48.758;9.302;2022-07-21T01:53:52;14.70;;;13.70;;
669;SDS011;317;48.758;9.302;2022-07-21T01:56:19;15.17;;;14.17;;
669;SDS011;317;48.758;9.302;2022-07-21T01:58:47;13.57;;;12.37;;
669;SDS011;317;48.758;9.302;2022-07-21T02:01:15;13.20;;;12.10;;
669;SDS011;317;48.758;9.302;2022-07-21T02:03:42;12.77;;;11.67;;
669;SDS011;317;48.758;9.302;2022-07-21T02:06:09;12.70;;;11.70;;
669;SDS011;317;48.758;9.302;2022-07-21T02:08:36;11.87;;;10.97;;
669;SDS011;317;48.758;9.302;2022-07-21T02:11:05;12.53;;;11.53;;
669;SDS011;317;48.758;9.302;2022-07-21T02:13:32;12.00;;;11.10;;
669;SDS011;317;48.758;9.302;2022-07-21T02:15:59;12.33;;;11.30;;
669;SDS011;317;48.758;9.302;2022-07-21T02:18:25;11.80;;;10.93;;
669;SDS011;317;48.758;9.302;2022-07-21T02:20:52;12.10;;;10.90;;
669;SDS011;317;48.758;9.302;2022-07-21T02:23:20;10.90;;;10.00;;
669;SDS011;317;48.758;9.302;2022-07-21T02:25:47;11.17;;;10.27;;
669;SDS011;317;48.758;9.302;2022-07-21T02:28:16;11.10;;;10.20;;
669;SDS011;317;48.758;9.302;2022-07-21T02:30:43;11.53;;;10.00;;
669;SDS011;317;48.758;9.302;2022-07-21T02:33:10;11.30;;;10.40;;
669;SDS011;317;48.758;9.302;2022-07-21T02:35:37;12.37;;;11.03;;
669;SDS011;317;48.758;9.302;2022-07-21T02:38:07;10.57;;;9.67;;
669;SDS011;317;48.758;9.302;2022-07-21T02:40:35;11.03;;;9.93;;
669;SDS011;317;48.758;9.302;2022-07-21T02:43:02;12.30;;;10.20;;
669;SDS011;317;48.758;9.302;2022-07-21T02:45:31;11.40;;;10.50;;
669;SDS011;317;48.758;9.302;2022-07-21T02:47:59;11.93;;;11.13;;
669;SDS011;317;48.758;9.302;2022-07-21T02:50:28;13.00;;;12.00;;
669;SDS011;317;48.758;9.302;2022-07-21T02:52:57;11.70;;;10.70;;
669;SDS011;317;48.758;9.302;2022-07-21T02:55:25;11.57;;;10.63;;
669;SDS011;317;48.758;9.302;2022-07-21T02:58:02;11.70;;;10.80;;
669;SDS011;317;48.758;9.302;2022-07-21T03:00:32;11.17;;;10.07;;
669;SDS011;317;48.758;9.302;2022-07-21T03:03:00;11.40;;;10.60;;
669;SDS011;317;48.758;9.302;2022-07-21T03:05:27;9.60;;;8.90;;
669;SDS011;317;48.758;9.302;2022-07-21T03:07:53;10.73;;;9.77;;
669;SDS011;317;48.758;9.302;2022-07-21T03:10:20;9.73;;;9.03;;
669;SDS011;317;48.758;9.302;2022-07-21T03:12:47;9.77;;;9.07;;
669;SDS011;317;48.758;9.302;2022-07-21T03:15:14;9.63;;;8.83;;
669;SDS011;317;48.758;9.302;2022-07-21T03:17:42;9.40;;;8.70;;
669;SDS011;317;48.758;9.302;2022-07-21T03:20:10;9.73;;;8.67;;
669;SDS011;317;48.758;9.302;2022-07-21T03:22:37;9.30;;;8.43;;
669;SDS011;317;48.758;9.302;2022-07-21T03:25:05;10.10;;;9.20;;
669;SDS011;317;48.758;9.302;2022-07-21T03:27:32;8.93;;;8.13;;
669;SDS011;317;48.758;9.302;2022-07-21T03:30:01;8.83;;;8.03;;
669;SDS011;317;48.758;9.302;2022-07-21T03:32:29;8.80;;;8.17;;
669;SDS011;317;48.758;9.302;2022-07-21T03:34:57;8.30;;;7.70;;
669;SDS011;317;48.758;9.302;2022-07-21T03:37:24;8.37;;;7.57;;
669;SDS011;317;48.758;9.302;2022-07-21T03:39:52;8.00;;;7.33;;
669;SDS011;317;48.758;9.302;2022-07-21T03:42:19;8.17;;;7.57;;
669;SDS011;317;48.758;9.302;2022-07-21T03:44:45;8.20;;;7.60;;
669;SDS011;317;48.758;9.302;2022-07-21T03:47:12;7.83;;;7.07;;
669;SDS011;317;48.758;9.302;2022-07-21T03:49:39;8.33;;;6.40;;
669;SDS011;317;48.758;9.302;2022-07-21T03:52:09;8.40;;;7.43;;
669;SDS011;317;48.758;9.302;2022-07-21T03:54:35;8.37;;;7.73;;
669;SDS011;317;48.758;9.302;2022-07-21T03:57:02;9.33;;;8.43;;
669;SDS011;317;48.758;9.302;2022-07-21T03:59:30;9.20;;;8.30;;
669;SDS011;317;48.758;9.302;2022-07-21T04:01:57;8.97;;;7.30;;
669;SDS011;317;48.758;9.302;2022-07-21T04:04:23;9.23;;;8.60;;
669;SDS011;317;48.758;9.302;2022-07-21T04:06:50;9.80;;;9.00;;
669;SDS011;317;48.758;9.302;2022-07-21T04:09:18;8.30;;;7.50;;
669;SDS011;317;48.758;9.302;2022-07-21T04:11:45;7.73;;;7.03;;
669;SDS011;317;48.758;9.302;2022-07-21T04:14:12;9.00;;;8.50;;
669;SDS011;317;48.758;9.302;2022-07-21T04:16:39;10.33;;;8.77;;
669;SDS011;317;48.758;9.302;2022-07-21T04:19:06;10.80;;;9.70;;
669;SDS011;317;48.758;9.302;2022-07-21T04:21:33;9.70;;;8.80;;
669;SDS011;317;48.758;9.302;2022-07-21T04:24:00;10.37;;;9.53;;
669;SDS011;317;48.758;9.302;2022-07-21T04:26:28;10.93;;;10.23;;
669;SDS011;317;48.758;9.302;2022-07-21T04:28:55;9.83;;;9.13;;
669;SDS011;317;48.758;9.302;2022-07-21T04:31:22;9.70;;;8.70;;
669;SDS011;317;48.758;9.302;2022-07-21T04:33:49;9.57;;;8.57;;
669;SDS011;317;48.758;9.302;2022-07-21T04:36:15;7.40;;;6.70;;
669;SDS011;317;48.758;9.302;2022-07-21T04:38:42;8.07;;;7.47;;
669;SDS011;317;48.758;9.302;2022-07-21T04:41:09;10.27;;;9.27;;
669;SDS011;317;48.758;9.302;2022-07-21T04:43:38;9.30;;;8.20;;
669;SDS011;317;48.758;9.302;2022-07-21T04:46:05;11.30;;;10.37;;
669;SDS011;317;48.758;9.302;2022-07-21T04:48:32;12.00;;;9.17;;
669;SDS011;317;48.758;9.302;2022-07-21T04:50:59;8.40;;;7.60;;
669;SDS011;317;48.758;9.302;2022-07-21T04:53:26;8.53;;;7.67;;
669;SDS011;317;48.758;9.302;2022-07-21T04:55:53;7.43;;;6.73;;
669;SDS011;317;48.758;9.302;2022-07-21T04:58:19;8.33;;;7.57;;
669;SDS011;317;48.758;9.302;2022-07-21T05:00:48;8.47;;;7.77;;
669;SDS011;317;48.758;9.302;2022-07-21T05:03:15;12.10;;;10.30;;
669;SDS011;317;48.758;9.302;2022-07-21T05:05:42;10.23;;;9.27;;
669;SDS011;317;48.758;9.302;2022-07-21T05:08:08;10.73;;;9.83;;
669;SDS011;317;48.758;9.302;2022-07-21T05:10:35;10.17;;;8.27;;
669;SDS011;317;48.758;9.302;2022-07-21T05:13:02;9.67;;;9.07;;
669;SDS011;317;48.758;9.302;2022-07-21T05:15:29;11.20;;;10.30;;
669;SDS011;317;48.758;9.302;2022-07-21T05:17:57;9.80;;;8.20;;
669;SDS011;317;48.758;9.302;2022-07-21T05:20:24;9.17;;;8.40;;
669;SDS011;317;48.758;9.302;2022-07-21T05:22:51;11.03;;;9.90;;
669;SDS011;317;48.758;9.302;2022-07-21T05:25:18;13.90;;;9.10;;
669;SDS011;317;48.758;9.302;2022-07-21T05:27:45;10.30;;;9.50;;
669;SDS011;317;48.758;9.302;2022-07-21T05:30:12;10.30;;;8.93;;
669;SDS011;317;48.758;9.302;2022-07-21T05:32:39;9.63;;;8.67;;
669;SDS011;317;48.758;9.302;2022-07-21T05:35:07;11.00;;;10.00;;
669;SDS011;317;48.758;9.302;2022-07-21T05:37:36;9.20;;;8.30;;
669;SDS011;317;48.758;9.302;2022-07-21T05:40:04;10.93;;;9.93;;
669;SDS011;317;48.758;9.302;2022-07-21T05:42:31;9.77;;;8.87;;
669;SDS011;317;48.758;9.302;2022-07-21T05:44:58;13.27;;;12.13;;
669;SDS011;317;48.758;9.302;2022-07-21T05:47:25;13.10;;;12.03;;
669;SDS011;317;48.758;9.302;2022-07-21T05:49:52;10.63;;;9.63;;
669;SDS011;317;48.758;9.302;2022-07-21T05:52:21;10.83;;;9.83;;
669;SDS011;317;48.758;9.302;2022-07-21T05:54:48;11.77;;;10.80;;
669;SDS011;317;48.758;9.302;2022-07-21T05:57:15;10.47;;;9.50;;
669;SDS011;317;48.758;9.302;2022-07-21T05:59:42;8.57;;;7.80;;
669;SDS011;317;48.758;9.302;2022-07-21T06:02:09;11.73;;;10.47;;
669;SDS011;317;48.758;9.302;2022-07-21T06:04:36;10.87;;;9.90;;
669;SDS011;317;48.758;9.302;2022-07-21T06:07:03;12.20;;;10.43;;
669;SDS011;317;48.758;9.302;2022-07-21T06:09:31;10.30;;;9.40;;
669;SDS011;317;48.758;9.302;2022-07-21T06:11:58;12.03;;;10.03;;
669;SDS011;317;48.758;9.302;2022-07-21T06:14:25;10.83;;;9.77;;
669;SDS011;317;48.758;9.302;2022-07-21T06:16:52;10.67;;;9.77;;
669;SDS011;317;48.758;9.302;2022-07-21T06:19:19;11.67;;;9.90;;
669;SDS011;317;48.758;9.302;2022-07-21T06:21:46;13.40;;;12.43;;
669;SDS011;317;48.758;9.302;2022-07-21T06:24:13;12.30;;;11.40;;
669;SDS011;317;48.758;9.302;2022-07-21T06:26:42;11.23;;;10.17;;
669;SDS011;317;48.758;9.302;2022-07-21T06:29:08;11.77;;;10.70;;
669;SDS011;317;48.758;9.302;2022-07-21T06:31:35;12.33;;;11.30;;
669;SDS011;317;48.758;9.302;2022-07-21T06:34:02;13.60;;;10.30;;
669;SDS011;317;48.758;9.302;2022-07-21T06:36:29;12.23;;;11.23;;
669;SDS011;317;48.758;9.302;2022-07-21T06:38:56;10.57;;;9.47;;
669;SDS011;317;48.758;9.302;2022-07-21T06:41:23;10.43;;;9.53;;
669;SDS011;317;48.758;9.302;2022-07-21T06:43:51;8.67;;;8.07;;
669;SDS011;317;48.758;9.302;2022-07-21T06:46:18;9.97;;;9.10;;
669;SDS011;317;48.758;9.302;2022-07-21T06:48:45;8.30;;;7.70;;
669;SDS011;317;48.758;9.302;2022-07-21T06:51:12;10.37;;;9.23;;
669;SDS011;317;48.758;9.302;2022-07-21T06:53:39;10.17;;;9.33;;
669;SDS011;317;48.758;9.302;2022-07-21T06:56:07;8.90;;;8.20;;
669;SDS011;317;48.758;9.302;2022-07-21T06:58:34;9.57;;;8.13;;
669;SDS011;317;48.758;9.302;2022-07-21T07:01:02;8.87;;;8.17;;
669;SDS011;317;48.758;9.302;2022-07-21T07:03:29;9.10;;;8.30;;
669;SDS011;317;48.758;9.302;2022-07-21T07:05:58;8.03;;;7.40;;
669;SDS011;317;48.758;9.302;2022-07-21T07:08:25;7.27;;;6.67;;
669;SDS011;317;48.758;9.302;2022-07-21T07:10:51;8.77;;;8.00;;
669;SDS011;317;48.758;9.302;2022-07-21T07:13:18;8.40;;;7.70;;
669;SDS011;317;48.758;9.302;2022-07-21T07:15:45;8.70;;;8.00;;
669;SDS011;317;48.758;9.302;2022-07-21T07:18:13;9.07;;;8.20;;
669;SDS011;317;48.758;9.302;2022-07-21T07:20:40;9.00;;;8.10;;
669;SDS011;317;48.758;9.302;2022-07-21T07:23:09;8.13;;;7.43;;
669;SDS011;317;48.758;9.302;2022-07-21T07:25:36;8.00;;;7.30;;
669;SDS011;317;48.758;9.302;2022-07-21T07:28:11;8.40;;;7.70;;
669;SDS011;317;48.758;9.302;2022-07-21T07:30:38;9.17;;;8.47;;
669;SDS011;317;48.758;9.302;2022-07-21T07:33:05;7.93;;;7.23;;
669;SDS011;317;48.758;9.302;2022-07-21T07:35:33;8.30;;;7.67;;
669;SDS011;317;48.758;9.302;2022-07-21T07:38:00;7.57;;;6.97;;
669;SDS011;317;48.758;9.302;2022-07-21T07:40:27;6.80;;;6.27;;
669;SDS011;317;48.758;9.302;2022-07-21T07:42:55;8.00;;;7.30;;
669;SDS011;317;48.758;9.302;2022-07-21T07:45:21;7.70;;;7.10;;
669;SDS011;317;48.758;9.302;2022-07-21T07:47:48;7.67;;;7.07;;
669;SDS011;317;48.758;9.302;2022-07-21T07:50:15;9.83;;;7.60;;
669;SDS011;317;48.758;9.302;2022-07-21T07:52:44;7.70;;;7.10;;
669;SDS011;317;48.758;9.302;2022-07-21T07:55:11;7.80;;;7.20;;
669;SDS011;317;48.758;9.302;2022-07-21T07:57:39;7.47;;;6.97;;
669;SDS011;317;48.758;9.302;2022-07-21T08:00:08;7.33;;;6.73;;
669;SDS011;317;48.758;9.302;2022-07-21T08:02:36;7.63;;;7.00;;
669;SDS011;317;48.758;9.302;2022-07-21T08:05:03;6.67;;;6.27;;
669;SDS011;317;48.758;9.302;2022-07-21T08:07:31;7.53;;;6.83;;
669;SDS011;317;48.758;9.302;2022-07-21T08:10:00;8.40;;;7.40;;
669;SDS011;317;48.758;9.302;2022-07-21T08:12:26;7.20;;;6.70;;
669;SDS011;317;48.758;9.302;2022-07-21T08:14:53;8.10;;;7.40;;
669;SDS011;317;48.758;9.302;2022-07-21T08:17:20;8.20;;;7.50;;
669;SDS011;317;48.758;9.302;2022-07-21T08:19:47;7.90;;;7.20;;
669;SDS011;317;48.758;9.302;2022-07-21T08:22:14;8.83;;;8.03;;
669;SDS011;317;48.758;9.302;2022-07-21T08:24:41;7.80;;;7.30;;
669;SDS011;317;48.758;9.302;2022-07-21T08:27:09;7.43;;;6.80;;
669;SDS011;317;48.758;9.302;2022-07-21T08:29:36;8.00;;;7.30;;
669;SDS011;317;48.758;9.302;2022-07-21T08:32:03;6.67;;;6.27;;
669;SDS011;317;48.758;9.302;2022-07-21T08:34:30;8.07;;;7.33;;
669;SDS011;317;48.758;9.302;2022-07-21T08:36:57;7.60;;;7.00;;
669;SDS011;317;48.758;9.302;2022-07-21T08:39:24;6.70;;;6.10;;
669;SDS011;317;48.758;9.302;2022-07-21T08:41:51;7.87;;;7.10;;
669;SDS011;317;48.758;9.302;2022-07-21T08:44:19;8.73;;;8.13;;
669;SDS011;317;48.758;9.302;2022-07-21T08:46:48;8.33;;;7.63;;
669;SDS011;317;48.758;9.302;2022-07-21T08:49:16;7.23;;;6.67;;
669;SDS011;317;48.758;9.302;2022-07-21T08:51:46;9.00;;;8.20;;
669;SDS011;317;48.758;9.302;2022-07-21T08:54:13;8.07;;;7.47;;
669;SDS011;317;48.758;9.302;2022-07-21T08:56:40;8.00;;;7.40;;
669;SDS011;317;48.758;9.302;2022-07-21T08:59:07;7.77;;;7.23;;
669;SDS011;317;48.758;9.302;2022-07-21T09:01:35;8.70;;;7.50;;
669;SDS011;317;48.758;9.302;2022-07-21T09:06:52;7.47;;;6.87;;
669;SDS011;317;48.758;9.302;2022-07-21T09:09:20;7.53;;;7.03;;
669;SDS011;317;48.758;9.302;2022-07-21T09:11:48;8.33;;;7.67;;
669;SDS011;317;48.758;9.302;2022-07-21T09:14:16;8.33;;;7.60;;
669;SDS011;317;48.758;9.302;2022-07-21T09:16:48;7.37;;;6.77;;
669;SDS011;317;48.758;9.302;2022-07-21T09:19:18;9.53;;;7.27;;
669;SDS011;317;48.758;9.302;2022-07-21T09:21:46;8.30;;;7.70;;
669;SDS011;317;48.758;9.302;2022-07-21T09:24:15;6.90;;;6.30;;
669;SDS011;317;48.758;9.302;2022-07-21T09:29:43;7.47;;;6.87;;
669;SDS011;317;48.758;9.302;2022-07-21T09:32:17;5.90;;;5.40;;
669;SDS011;317;48.758;9.302;2022-07-21T09:34:48;6.00;;;5.60;;
669;SDS011;317;48.758;9.302;2022-07-21T09:37:17;6.50;;;6.00;;
669;SDS011;317;48.758;9.302;2022-07-21T09:39:46;5.90;;;5.47;;
669;SDS011;317;48.758;9.302;2022-07-21T09:42:15;5.90;;;5.50;;
669;SDS011;317;48.758;9.302;2022-07-21T09:44:45;6.40;;;6.00;;
669;SDS011;317;48.758;9.302;2022-07-21T09:47:13;6.37;;;5.90;;
669;SDS011;317;48.758;9.302;2022-07-21T09:49:42;6.77;;;6.17;;
669;SDS011;317;48.758;9.302;2022-07-21T09:54:56;5.50;;;5.10;;
669;SDS011;317;48.758;9.302;2022-07-21T09:57:29;6.10;;;5.60;;
669;SDS011;317;48.758;9.302;2022-07-21T09:59:56;5.43;;;5.13;;
669;SDS011;317;48.758;9.302;2022-07-21T10:02:24;6.20;;;5.80;;
669;SDS011;317;48.758;9.302;2022-07-21T10:05:00;6.10;;;5.60;;
669;SDS011;317;48.758;9.302;2022-07-21T10:07:30;6.03;;;5.50;;
669;SDS011;317;48.758;9.302;2022-07-21T10:09:59;5.80;;;5.40;;
669;SDS011;317;48.758;9.302;2022-07-21T10:12:26;5.33;;;4.93;;
669;SDS011;317;48.758;9.302;2022-07-21T10:14:54;6.47;;;5.97;;
669;SDS011;317;48.758;9.302;2022-07-21T10:17:22;5.50;;;5.10;;
669;SDS011;317;48.758;9.302;2022-07-21T10:19:57;5.70;;;5.30;;
669;SDS011;317;48.758;9.302;2022-07-21T10:22:36;5.73;;;5.33;;
669;SDS011;317;48.758;9.302;2022-07-21T10:25:15;9.23;;;5.67;;
669;SDS011;317;48.758;9.302;2022-07-21T10:27:53;6.13;;;5.73;;
669;SDS011;317;48.758;9.302;2022-07-21T10:30:39;4.60;;;4.30;;
669;SDS011;317;48.758;9.302;2022-07-21T10:33:06;5.00;;;4.70;;
669;SDS011;317;48.758;9.302;2022-07-21T10:35:39;5.97;;;5.57;;
669;SDS011;317;48.758;9.302;2022-07-21T10:38:12;5.70;;;5.30;;
669;SDS011;317;48.758;9.302;2022-07-21T10:40:53;5.70;;;5.30;;
669;SDS011;317;48.758;9.302;2022-07-21T10:43:36;5.70;;;5.30;;
669;SDS011;317;48.758;9.302;2022-07-21T10:49:04;4.50;;;4.20;;
669;SDS011;317;48.758;9.302;2022-07-21T10:51:33;4.40;;;4.10;;
669;SDS011;317;48.758;9.302;2022-07-21T10:54:17;4.73;;;4.23;;
669;SDS011;317;48.758;9.302;2022-07-21T10:56:48;4.43;;;4.03;;
669;SDS011;317;48.758;9.302;2022-07-21T11:02:49;5.00;;;4.60;;
669;SDS011;317;48.758;9.302;2022-07-21T11:05:18;6.13;;;5.30;;
669;SDS011;317;48.758;9.302;2022-07-21T11:10:38;5.70;;;5.30;;
669;SDS011;317;48.758;9.302;2022-07-21T11:13:07;6.17;;;5.67;;
669;SDS011;317;48.758;9.302;2022-07-21T11:15:45;5.60;;;5.10;;
669;SDS011;317;48.758;9.302;2022-07-21T11:18:16;6.37;;;5.80;;
669;SDS011;317;48.758;9.302;2022-07-21T11:20:43;6.27;;;5.80;;
669;SDS011;317;48.758;9.302;2022-07-21T11:23:34;6.60;;;6.00;;
669;SDS011;317;48.758;9.302;2022-07-21T11:26:02;5.30;;;5.00;;
669;SDS011;317;48.758;9.302;2022-07-21T11:28:29;6.50;;;5.57;;
669;SDS011;317;48.758;9.302;2022-07-21T11:31:05;5.47;;;5.07;;
669;SDS011;317;48.758;9.302;2022-07-21T11:33:37;5.70;;;5.30;;
669;SDS011;317;48.758;9.302;2022-07-21T11:36:05;5.67;;;5.27;;
669;SDS011;317;48.758;9.302;2022-07-21T11:38:32;5.30;;;4.90;;
669;SDS011;317;48.758;9.302;2022-07-21T11:41:16;4.80;;;4.40;;
669;SDS011;317;48.758;9.302;2022-07-21T11:43:45;6.27;;;4.97;;
669;SDS011;317;48.758;9.302;2022-07-21T11:46:12;5.10;;;4.60;;
669;SDS011;317;48.758;9.302;2022-07-21T11:48:39;5.73;;;5.33;;
669;SDS011;317;48.758;9.302;2022-07-21T11:51:06;5.40;;;5.00;;
669;SDS011;317;48.758;9.302;2022-07-21T11:53:35;6.50;;;6.00;;
669;SDS011;317;48.758;9.302;2022-07-21T11:56:12;6.00;;;5.60;;
669;SDS011;317;48.758;9.302;2022-07-21T11:58:40;6.00;;;5.50;;
669;SDS011;317;48.758;9.302;2022-07-21T12:01:07;6.37;;;5.87;;
669;SDS011;317;48.758;9.302;2022-07-21T12:03:35;5.90;;;5.30;;
669;SDS011;317;48.758;9.302;2022-07-21T12:06:13;5.67;;;5.27;;
669;SDS011;317;48.758;9.302;2022-07-21T12:08:42;5.23;;;4.90;;
669;SDS011;317;48.758;9.302;2022-07-21T12:11:10;7.60;;;5.93;;
669;SDS011;317;48.758;9.302;2022-07-21T12:13:53;5.70;;;5.20;;
669;SDS011;317;48.758;9.302;2022-07-21T12:16:21;5.20;;;4.80;;
669;SDS011;317;48.758;9.302;2022-07-21T12:18:48;5.70;;;4.80;;
669;SDS011;317;48.758;9.302;2022-07-21T12:21:15;5.03;;;4.63;;
669;SDS011;317;48.758;9.302;2022-07-21T12:23:43;5.80;;;5.40;;
669;SDS011;317;48.758;9.302;2022-07-21T12:26:19;4.60;;;4.30;;
669;SDS011;317;48.758;9.302;2022-07-21T12:28:48;5.17;;;4.70;;
669;SDS011;317;48.758;9.302;2022-07-21T12:31:18;4.67;;;4.27;;
669;SDS011;317;48.758;9.302;2022-07-21T12:33:46;4.13;;;3.77;;
669;SDS011;317;48.758;9.302;2022-07-21T12:36:14;4.20;;;3.90;;
669;SDS011;317;48.758;9.302;2022-07-21T12:38:41;4.90;;;4.53;;
669;SDS011;317;48.758;9.302;2022-07-21T12:41:11;5.90;;;5.50;;
669;SDS011;317;48.758;9.302;2022-07-21T12:43:52;4.83;;;4.43;;
669;SDS011;317;48.758;9.302;2022-07-21T12:46:27;5.27;;;4.87;;
669;SDS011;317;48.758;9.302;2022-07-21T12:49:02;7.43;;;4.57;;
669;SDS011;317;48.758;9.302;2022-07-21T12:51:31;5.20;;;4.80;;
669;SDS011;317;48.758;9.302;2022-07-21T12:54:00;4.90;;;4.50;;
669;SDS011;317;48.758;9.302;2022-07-21T12:56:27;4.60;;;4.30;;
669;SDS011;317;48.758;9.302;2022-07-21T12:58:57;5.20;;;4.87;;
669;SDS011;317;48.758;9.302;2022-07-21T13:01:26;5.67;;;4.87;;
669;SDS011;317;48.758;9.302;2022-07-21T13:03:56;5.90;;;5.40;;
669;SDS011;317;48.758;9.302;2022-07-21T13:06:23;6.00;;;5.50;;
669;SDS011;317;48.758;9.302;2022-07-21T13:08:50;7.40;;;6.43;;
669;SDS011;317;48.758;9.302;2022-07-21T13:11:19;6.10;;;5.70;;
669;SDS011;317;48.758;9.302;2022-07-21T13:13:46;5.70;;;5.20;;
669;SDS011;317;48.758;9.302;2022-07-21T13:16:14;5.30;;;5.00;;
669;SDS011;317;48.758;9.302;2022-07-21T13:18:41;6.03;;;5.63;;
669;SDS011;317;48.758;9.302;2022-07-21T13:21:08;6.40;;;5.97;;
669;SDS011;317;48.758;9.302;2022-07-21T13:23:35;6.07;;;5.57;;
669;SDS011;317;48.758;9.302;2022-07-21T13:26:02;6.13;;;5.73;;
669;SDS011;317;48.758;9.302;2022-07-21T13:28:30;5.60;;;5.20;;
669;SDS011;317;48.758;9.302;2022-07-21T13:30:59;5.80;;;5.40;;
669;SDS011;317;48.758;9.302;2022-07-21T13:33:26;7.73;;;5.70;;
669;SDS011;317;48.758;9.302;2022-07-21T13:35:53;6.20;;;5.67;;
669;SDS011;317;48.758;9.302;2022-07-21T13:38:20;6.30;;;5.80;;
669;SDS011;317;48.758;9.302;2022-07-21T13:40:47;6.17;;;5.57;;
669;SDS011;317;48.758;9.302;2022-07-21T13:43:13;6.00;;;5.50;;
669;SDS011;317;48.758;9.302;2022-07-21T13:45:43;7.67;;;5.93;;
669;SDS011;317;48.758;9.302;2022-07-21T13:48:10;5.73;;;5.23;;
669;SDS011;317;48.758;9.302;2022-07-21T13:50:36;6.13;;;5.63;;
669;SDS011;317;48.758;9.302;2022-07-21T13:53:03;5.83;;;5.33;;
669;SDS011;317;48.758;9.302;2022-07-21T13:55:30;6.07;;;5.40;;
669;SDS011;317;48.758;9.302;2022-07-21T13:57:57;6.37;;;5.80;;
669;SDS011;317;48.758;9.302;2022-07-21T14:00:26;5.87;;;5.47;;
669;SDS011;317;48.758;9.302;2022-07-21T14:02:56;6.57;;;5.67;;
669;SDS011;317;48.758;9.302;2022-07-21T14:05:23;7.73;;;6.30;;
669;SDS011;317;48.758;9.302;2022-07-21T14:07:50;6.30;;;5.80;;
669;SDS011;317;48.758;9.302;2022-07-21T14:10:17;6.37;;;5.80;;
669;SDS011;317;48.758;9.302;2022-07-21T14:12:44;5.90;;;5.33;;
669;SDS011;317;48.758;9.302;2022-07-21T14:15:11;5.87;;;5.10;;
669;SDS011;317;48.758;9.302;2022-07-21T14:17:38;6.10;;;5.70;;
669;SDS011;317;48.758;9.302;2022-07-21T14:20:06;5.47;;;5.13;;
669;SDS011;317;48.758;9.302;2022-07-21T14:22:34;5.50;;;5.10;;
669;SDS011;317;48.758;9.302;2022-07-21T14:25:01;6.10;;;5.50;;
669;SDS011;317;48.758;9.302;2022-07-21T14:27:45;5.53;;;5.23;;
669;SDS011;317;48.758;9.302;2022-07-21T14:30:12;5.70;;;5.40;;
669;SDS011;317;48.758;9.302;2022-07-21T14:32:39;5.80;;;5.40;;
669;SDS011;317;48.758;9.302;2022-07-21T14:35:08;5.20;;;4.90;;
669;SDS011;317;48.758;9.302;2022-07-21T14:37:36;6.27;;;5.77;;
669;SDS011;317;48.758;9.302;2022-07-21T14:40:05;5.77;;;5.20;;
669;SDS011;317;48.758;9.302;2022-07-21T14:42:33;5.73;;;5.30;;
669;SDS011;317;48.758;9.302;2022-07-21T14:45:00;5.67;;;5.13;;
669;SDS011;317;48.758;9.302;2022-07-21T14:47:28;5.67;;;5.27;;
669;SDS011;317;48.758;9.302;2022-07-21T14:49:55;5.67;;;5.17;;
669;SDS011;317;48.758;9.302;2022-07-21T14:52:24;5.30;;;5.00;;
669;SDS011;317;48.758;9.302;2022-07-21T14:54:51;6.83;;;5.00;;
669;SDS011;317;48.758;9.302;2022-07-21T14:57:18;5.47;;;5.07;;
669;SDS011;317;48.758;9.302;2022-07-21T14:59:46;5.50;;;5.17;;
669;SDS011;317;48.758;9.302;2022-07-21T15:02:12;5.33;;;5.00;;
669;SDS011;317;48.758;9.302;2022-07-21T15:04:39;5.53;;;5.13;;
669;SDS011;317;48.758;9.302;2022-07-21T15:07:06;5.50;;;4.60;;
669;SDS011;317;48.758;9.302;2022-07-21T15:09:36;6.60;;;6.20;;
669;SDS011;317;48.758;9.302;2022-07-21T15:12:03;7.00;;;6.60;;
669;SDS011;317;48.758;9.302;2022-07-21T15:14:30;7.63;;;4.97;;
669;SDS011;317;48.758;9.302;2022-07-21T15:16:57;6.07;;;5.67;;
669;SDS011;317;48.758;9.302;2022-07-21T15:19:25;6.70;;;6.10;;
669;SDS011;317;48.758;9.302;2022-07-21T15:21:52;6.23;;;5.70;;
669;SDS011;317;48.758;9.302;2022-07-21T15:24:19;5.73;;;5.33;;
669;SDS011;317;48.758;9.302;2022-07-21T15:26:47;6.50;;;6.00;;
669;SDS011;317;48.758;9.302;2022-07-21T15:29:14;5.77;;;5.40;;
669;SDS011;317;48.758;9.302;2022-07-21T15:31:41;6.93;;;6.30;;
669;SDS011;317;48.758;9.302;2022-07-21T15:34:09;6.43;;;6.03;;
669;SDS011;317;48.758;9.302;2022-07-21T15:36:36;6.83;;;6.33;;
669;SDS011;317;48.758;9.302;2022-07-21T15:39:03;6.30;;;5.80;;
669;SDS011;317;48.758;9.302;2022-07-21T15:41:30;5.80;;;5.50;;
669;SDS011;317;48.758;9.302;2022-07-21T15:44:02;6.23;;;5.73;;
669;SDS011;317;48.758;9.302;2022-07-21T15:46:30;6.13;;;5.63;;
669;SDS011;317;48.758;9.302;2022-07-21T15:48:57;6.40;;;5.97;;
669;SDS011;317;48.758;9.302;2022-07-21T15:51:24;7.07;;;6.60;;
669;SDS011;317;48.758;9.302;2022-07-21T15:53:52;5.33;;;4.93;;
669;SDS011;317;48.758;9.302;2022-07-21T15:56:19;5.33;;;4.93;;
669;SDS011;317;48.758;9.302;2022-07-21T15:58:46;6.90;;;4.90;;
669;SDS011;317;48.758;9.302;2022-07-21T16:01:33;5.40;;;5.00;;
669;SDS011;317;48.758;9.302;2022-07-21T16:04:00;4.97;;;4.57;;